createdAt,value
2022-08-26T00:02:47.986Z,12.80
2022-08-26T00:05:56.746Z,12.37
2022-08-26T00:09:08.021Z,11.83
2022-08-26T00:12:16.614Z,10.20
2022-08-26T00:15:26.597Z,10.53
2022-08-26T00:18:38.778Z,12.93
2022-08-26T00:21:49.932Z,12.40
2022-08-26T00:24:58.262Z,10.03
2022-08-26T00:28:08.024Z,10.40
2022-08-26T00:31:20.911Z,11.87
2022-08-26T00:34:30.303Z,10.73
2022-08-26T00:37:39.075Z,11.33
2022-08-26T00:40:50.433Z,11.40
2022-08-26T00:43:58.840Z,12.23
2022-08-26T00:47:25.281Z,13.17
2022-08-26T00:50:49.406Z,10.93
2022-08-26T00:54:05.356Z,13.77
2022-08-26T00:57:18.268Z,14.83
2022-08-26T01:00:34.795Z,12.70
2022-08-26T01:03:47.016Z,13.97
2022-08-26T01:06:55.956Z,13.10
2022-08-26T01:10:09.218Z,14.80
2022-08-26T01:13:20.101Z,11.23
2022-08-26T01:16:28.697Z,13.93
2022-08-26T01:19:47.249Z,12.97
2022-08-26T01:23:01.626Z,17.80
2022-08-26T01:26:19.777Z,17.17
2022-08-26T01:29:32.071Z,19.63
2022-08-26T01:32:41.689Z,13.77
2022-08-26T01:35:51.309Z,12.17
2022-08-26T01:39:01.148Z,13.30
2022-08-26T01:42:17.851Z,12.10
2022-08-26T01:45:31.855Z,10.93
2022-08-26T01:48:43.830Z,9.93
2022-08-26T01:51:55.915Z,12.33
2022-08-26T01:55:09.153Z,10.80
2022-08-26T01:58:25.752Z,10.47
2022-08-26T02:01:36.233Z,10.23
2022-08-26T02:04:51.795Z,11.33
2022-08-26T02:08:00.049Z,9.90
2022-08-26T02:11:09.610Z,8.80
2022-08-26T02:14:22.659Z,8.57
2022-08-26T02:17:38.632Z,7.77
2022-08-26T02:20:47.051Z,9.03
2022-08-26T02:24:11.337Z,8.07
2022-08-26T02:27:28.211Z,8.10
2022-08-26T02:30:44.801Z,8.70
2022-08-26T02:33:53.307Z,8.20
2022-08-26T02:37:05.282Z,9.43
2022-08-26T02:40:16.318Z,10.70
2022-08-26T02:43:31.762Z,7.90
2022-08-26T02:46:41.751Z,9.63
2022-08-26T02:49:55.353Z,8.37
2022-08-26T02:53:03.710Z,10.67
2022-08-26T02:56:12.045Z,9.10
2022-08-26T02:59:22.939Z,8.47
2022-08-26T03:02:32.701Z,8.67
2022-08-26T03:05:42.460Z,8.87
2022-08-26T03:08:52.032Z,8.57
2022-08-26T03:12:00.527Z,8.33
2022-08-26T03:15:17.996Z,9.53
2022-08-26T03:18:26.593Z,10.07
2022-08-26T03:21:36.978Z,10.10
2022-08-26T03:24:46.085Z,7.77
2022-08-26T03:27:55.167Z,8.57
2022-08-26T03:31:03.817Z,8.47
2022-08-26T03:34:12.057Z,8.30
2022-08-26T03:37:21.624Z,9.00
2022-08-26T03:40:30.525Z,9.50
2022-08-26T03:43:39.075Z,10.30
2022-08-26T03:46:50.022Z,9.93
2022-08-26T03:50:01.439Z,8.90
2022-08-26T03:53:12.782Z,10.20
2022-08-26T03:56:21.872Z,9.93
2022-08-26T03:59:30.055Z,10.37
2022-08-26T04:02:39.898Z,9.23
2022-08-26T04:05:53.168Z,8.53
2022-08-26T04:09:05.670Z,9.97
2022-08-26T04:12:13.949Z,9.13
2022-08-26T04:15:22.846Z,10.23
2022-08-26T04:18:37.023Z,12.27
2022-08-26T04:21:47.169Z,18.57
2022-08-26T04:24:56.497Z,33.27
2022-08-26T04:28:05.068Z,35.73
2022-08-26T04:31:16.020Z,62.43
2022-08-26T04:34:28.740Z,29.37
2022-08-26T04:37:37.464Z,16.00
2022-08-26T04:40:46.819Z,21.73
2022-08-26T04:43:55.337Z,10.77
2022-08-26T04:47:04.706Z,16.73
2022-08-26T04:50:15.270Z,14.13
2022-08-26T04:53:32.199Z,15.13
2022-08-26T04:56:46.394Z,16.40
2022-08-26T04:59:56.350Z,10.53
2022-08-26T05:03:04.513Z,7.83
2022-08-26T05:06:16.516Z,7.27
2022-08-26T05:09:27.371Z,7.37
2022-08-26T05:12:35.573Z,6.67
2022-08-26T05:15:45.149Z,6.73
2022-08-26T05:18:54.928Z,8.33
2022-08-26T05:22:05.552Z,7.03
2022-08-26T05:25:13.739Z,8.47
2022-08-26T05:28:23.346Z,14.00
2022-08-26T05:31:34.178Z,8.20
2022-08-26T05:34:43.009Z,10.90
2022-08-26T05:37:52.695Z,7.60
2022-08-26T05:41:02.084Z,7.17
2022-08-26T05:44:16.119Z,6.20
2022-08-26T05:47:25.117Z,6.60
2022-08-26T05:50:33.308Z,5.80
2022-08-26T05:53:54.846Z,5.23
2022-08-26T05:57:03.244Z,5.60
2022-08-26T06:00:16.153Z,5.43
2022-08-26T06:03:25.338Z,4.73
2022-08-26T06:06:36.817Z,8.13
2022-08-26T06:09:47.675Z,6.37
2022-08-26T06:12:56.788Z,4.70
2022-08-26T06:16:09.316Z,4.50
2022-08-26T06:19:17.632Z,4.40
2022-08-26T06:22:43.514Z,4.63
2022-08-26T06:25:53.026Z,4.43
2022-08-26T06:29:01.714Z,4.10
2022-08-26T06:32:12.577Z,4.17
2022-08-26T06:35:20.790Z,6.67
2022-08-26T06:38:29.861Z,3.73
2022-08-26T06:41:46.310Z,4.00
2022-08-26T06:48:11.119Z,3.43
2022-08-26T06:51:23.577Z,3.50
2022-08-26T06:54:32.004Z,3.80
2022-08-26T06:57:42.099Z,3.33
2022-08-26T07:00:53.859Z,3.30
2022-08-26T07:04:07.903Z,3.27
2022-08-26T07:07:22.054Z,3.47
2022-08-26T07:10:31.308Z,3.57
2022-08-26T07:13:41.813Z,3.80
2022-08-26T07:16:51.813Z,3.90
2022-08-26T07:19:59.988Z,3.60
2022-08-26T07:23:11.733Z,4.37
2022-08-26T07:26:23.401Z,3.30
2022-08-26T07:29:35.473Z,3.33
2022-08-26T07:32:43.631Z,5.17
2022-08-26T07:35:51.734Z,7.50
2022-08-26T07:38:59.882Z,3.43
2022-08-26T07:42:08.732Z,3.90
2022-08-26T07:45:18.805Z,5.73
2022-08-26T07:48:27.216Z,5.47
2022-08-26T07:51:37.609Z,6.20
2022-08-26T07:54:46.022Z,4.87
2022-08-26T07:57:54.346Z,6.23
2022-08-26T08:01:05.173Z,3.90
2022-08-26T08:04:25.522Z,5.03
2022-08-26T08:07:44.327Z,9.27
2022-08-26T08:10:53.919Z,10.07
2022-08-26T08:14:02.587Z,6.90
2022-08-26T08:17:17.980Z,4.47
2022-08-26T08:20:29.838Z,6.00
2022-08-26T08:23:38.358Z,5.87
2022-08-26T08:26:47.435Z,8.17
2022-08-26T08:29:56.824Z,4.77
2022-08-26T08:33:06.606Z,8.73
2022-08-26T08:36:18.492Z,7.80
2022-08-26T08:39:29.067Z,7.13
2022-08-26T08:42:47.168Z,7.97
2022-08-26T08:46:03.585Z,5.00
2022-08-26T08:49:16.321Z,5.67
2022-08-26T08:52:32.164Z,5.67
2022-08-26T08:56:00.042Z,6.50
2022-08-26T08:59:17.330Z,4.40
2022-08-26T09:02:35.776Z,4.20
2022-08-26T09:05:51.400Z,5.40
2022-08-26T09:09:02.328Z,5.03
2022-08-26T09:12:20.397Z,6.30
2022-08-26T09:15:59.705Z,6.20
2022-08-26T09:19:19.162Z,8.67
2022-08-26T09:22:35.839Z,6.47
2022-08-26T09:25:51.369Z,7.43
2022-08-26T09:29:03.021Z,7.63
2022-08-26T09:32:21.210Z,6.63
2022-08-26T09:35:33.240Z,5.67
2022-08-26T09:38:44.219Z,6.93
2022-08-26T09:42:06.868Z,5.07
2022-08-26T09:45:17.022Z,4.07
2022-08-26T09:48:35.494Z,7.90
2022-08-26T09:51:44.435Z,13.60
2022-08-26T09:55:15.604Z,6.90
2022-08-26T09:58:37.957Z,7.53
2022-08-26T10:01:46.748Z,4.83
2022-08-26T10:04:58.614Z,8.13
2022-08-26T10:08:25.199Z,6.83
2022-08-26T10:11:44.839Z,9.83
2022-08-26T10:15:04.439Z,7.90
2022-08-26T10:18:19.168Z,8.13
2022-08-26T10:21:34.197Z,6.60
2022-08-26T10:24:49.839Z,9.83
2022-08-26T10:28:11.984Z,13.07
2022-08-26T10:31:29.357Z,9.87
2022-08-26T10:34:37.996Z,9.87
2022-08-26T10:37:50.789Z,8.13
2022-08-26T10:41:09.911Z,8.77
2022-08-26T10:44:21.919Z,18.00
2022-08-26T10:47:44.217Z,10.13
2022-08-26T10:50:53.368Z,8.30
2022-08-26T10:54:11.906Z,8.50
2022-08-26T10:57:34.968Z,15.40
2022-08-26T11:01:10.825Z,5.43
2022-08-26T11:04:45.628Z,10.50
2022-08-26T11:08:46.383Z,9.03
2022-08-26T11:11:55.157Z,5.67
2022-08-26T11:15:05.253Z,8.23
2022-08-26T11:18:48.821Z,9.07
2022-08-26T11:22:11.040Z,11.20
2022-08-26T11:25:22.797Z,9.83
2022-08-26T11:28:39.665Z,6.27
2022-08-26T11:31:56.851Z,6.10
2022-08-26T11:35:09.944Z,4.43
2022-08-26T11:38:30.613Z,5.57
2022-08-26T11:41:39.889Z,6.07
2022-08-26T11:44:49.248Z,3.67
2022-08-26T11:47:58.123Z,4.20
2022-08-26T11:51:11.838Z,3.93
2022-08-26T11:54:35.663Z,5.53
2022-08-26T11:57:48.140Z,4.20
2022-08-26T12:01:01.742Z,6.10
2022-08-26T12:04:23.184Z,3.40
2022-08-26T12:07:33.567Z,4.73
2022-08-26T12:10:43.340Z,3.47
2022-08-26T12:14:00.794Z,3.93
2022-08-26T12:17:15.215Z,4.97
2022-08-26T12:20:48.078Z,6.40
2022-08-26T12:24:00.348Z,4.27
2022-08-26T12:27:21.966Z,4.50
2022-08-26T12:30:31.067Z,6.43
2022-08-26T12:33:41.158Z,4.53
2022-08-26T12:36:55.238Z,6.17
2022-08-26T12:40:35.604Z,9.33
2022-08-26T12:43:46.837Z,5.33
2022-08-26T12:47:01.848Z,10.00
2022-08-26T12:50:21.965Z,7.90
2022-08-26T12:53:33.941Z,7.30
2022-08-26T12:56:45.252Z,6.23
2022-08-26T12:59:54.284Z,3.93
2022-08-26T13:03:03.971Z,5.27
2022-08-26T13:06:29.608Z,4.43
2022-08-26T13:09:38.498Z,5.17
2022-08-26T13:12:48.961Z,4.00
2022-08-26T13:15:57.337Z,6.20
2022-08-26T13:19:10.227Z,4.20
2022-08-26T13:22:24.179Z,5.33
2022-08-26T13:25:32.589Z,7.13
2022-08-26T13:28:43.175Z,3.03
2022-08-26T13:31:52.255Z,4.57
2022-08-26T13:35:00.719Z,4.93
2022-08-26T13:38:30.879Z,2.23
2022-08-26T13:41:42.345Z,1.83
2022-08-26T13:44:55.325Z,2.30
2022-08-26T13:48:04.679Z,1.90
2022-08-26T13:51:12.982Z,2.03
2022-08-26T13:54:21.877Z,5.27
2022-08-26T13:57:31.031Z,1.43
2022-08-26T14:00:42.823Z,2.30
2022-08-26T14:03:51.341Z,2.13
2022-08-26T14:06:59.624Z,1.57
2022-08-26T14:10:09.494Z,1.50
2022-08-26T14:13:18.346Z,1.90
2022-08-26T14:16:33.364Z,1.60
2022-08-26T14:19:46.909Z,8.13
2022-08-26T14:23:14.406Z,4.43
2022-08-26T14:26:29.094Z,4.50
2022-08-26T14:29:37.881Z,6.23
2022-08-26T14:32:52.394Z,5.80
2022-08-26T14:36:15.032Z,5.57
2022-08-26T14:39:23.409Z,4.10
2022-08-26T14:42:32.435Z,7.77
2022-08-26T14:45:45.711Z,4.57
2022-08-26T14:48:56.699Z,5.03
2022-08-26T14:52:09.882Z,4.03
2022-08-26T14:55:17.301Z,4.57
2022-08-26T14:58:25.533Z,4.97
2022-08-26T15:01:39.368Z,5.80
2022-08-26T15:04:50.487Z,3.57
2022-08-26T15:07:59.015Z,5.47
2022-08-26T15:11:07.621Z,7.60
2022-08-26T15:14:19.494Z,3.77
2022-08-26T15:17:28.428Z,3.37
2022-08-26T15:20:38.201Z,7.03
2022-08-26T15:23:47.854Z,5.47
2022-08-26T15:26:56.330Z,8.13
2022-08-26T15:30:06.331Z,5.10
2022-08-26T15:33:14.942Z,7.90
2022-08-26T15:36:25.152Z,5.67
2022-08-26T15:39:33.874Z,4.40
2022-08-26T15:42:42.067Z,4.80
2022-08-26T15:45:50.601Z,3.50
2022-08-26T15:48:58.984Z,6.50
2022-08-26T15:52:09.398Z,5.57
2022-08-26T15:55:17.853Z,6.03
2022-08-26T15:58:27.926Z,6.03
2022-08-26T16:01:37.448Z,3.90
2022-08-26T16:04:45.810Z,4.17
2022-08-26T16:07:55.400Z,18.07
2022-08-26T16:11:05.866Z,6.13
2022-08-26T16:14:15.750Z,4.13
2022-08-26T16:17:24.232Z,6.17
2022-08-26T16:20:36.486Z,6.73
2022-08-26T16:23:46.844Z,4.80
2022-08-26T16:26:55.830Z,6.03
2022-08-26T16:30:07.347Z,4.80
2022-08-26T16:33:21.626Z,6.53
2022-08-26T16:36:39.719Z,4.53
2022-08-26T16:39:49.620Z,8.80
2022-08-26T16:42:58.037Z,8.00
2022-08-26T16:46:07.961Z,7.07
2022-08-26T16:49:16.445Z,6.83
2022-08-26T16:52:25.016Z,6.77
2022-08-26T16:55:40.102Z,8.03
2022-08-26T16:58:49.052Z,5.63
2022-08-26T17:01:57.569Z,6.97
2022-08-26T17:05:07.300Z,5.10
2022-08-26T17:08:27.488Z,6.33
2022-08-26T17:11:38.933Z,8.17
2022-08-26T17:14:47.371Z,8.17
2022-08-26T17:17:57.420Z,6.87
2022-08-26T17:21:10.537Z,6.83
2022-08-26T17:24:18.986Z,4.33
2022-08-26T17:27:28.542Z,5.60
2022-08-26T17:30:37.158Z,6.00
2022-08-26T17:33:48.901Z,4.40
2022-08-26T17:37:01.953Z,7.10
2022-08-26T17:40:16.010Z,7.17
2022-08-26T17:43:26.680Z,5.57
2022-08-26T17:46:38.166Z,8.23
2022-08-26T17:49:46.839Z,6.67
2022-08-26T17:52:55.193Z,8.03
2022-08-26T17:56:07.056Z,8.37
2022-08-26T17:59:18.690Z,9.07
2022-08-26T18:05:48.784Z,7.90
2022-08-26T18:08:58.798Z,5.03
2022-08-26T18:12:08.316Z,5.77
2022-08-26T18:15:20.458Z,8.07
2022-08-26T18:18:28.978Z,7.23
2022-08-26T18:21:38.507Z,12.57
2022-08-26T18:24:52.820Z,6.73
2022-08-26T18:28:08.044Z,7.90
2022-08-26T18:31:18.448Z,7.03
2022-08-26T18:34:31.559Z,10.23
2022-08-26T18:37:41.688Z,7.30
2022-08-26T18:40:51.966Z,7.83
2022-08-26T18:44:01.148Z,6.57
2022-08-26T18:47:10.976Z,13.40
2022-08-26T18:50:19.982Z,8.50
2022-08-26T18:53:31.007Z,7.97
2022-08-26T18:56:42.433Z,11.07
2022-08-26T18:59:51.113Z,8.10
2022-08-26T19:03:00.913Z,6.33
2022-08-26T19:06:13.541Z,6.63
2022-08-26T19:09:22.493Z,7.47
2022-08-26T19:12:31.429Z,10.90
2022-08-26T19:15:45.911Z,9.10
2022-08-26T19:18:59.056Z,8.70
2022-08-26T19:22:08.269Z,8.87
2022-08-26T19:25:17.603Z,11.17
2022-08-26T19:28:26.033Z,11.13
2022-08-26T19:31:34.566Z,14.80
2022-08-26T19:34:45.439Z,9.17
2022-08-26T19:37:53.864Z,10.07
2022-08-26T19:41:02.536Z,5.23
2022-08-26T19:44:34.133Z,1.70
2022-08-26T19:47:43.164Z,3.30
2022-08-26T19:50:53.022Z,5.43
2022-08-26T19:54:02.582Z,14.83
2022-08-26T19:57:11.889Z,6.87
2022-08-26T20:00:26.851Z,2.73
2022-08-26T20:03:36.684Z,4.83
2022-08-26T20:06:46.444Z,4.77
2022-08-26T20:10:00.739Z,3.77
2022-08-26T20:13:09.571Z,4.03
2022-08-26T20:16:19.043Z,9.00
2022-08-26T20:19:45.451Z,2.23
2022-08-26T20:22:55.714Z,3.27
2022-08-26T20:26:04.409Z,4.73
2022-08-26T20:29:18.437Z,3.57
2022-08-26T20:32:27.628Z,4.63
2022-08-26T20:35:36.443Z,5.07
2022-08-26T20:38:46.654Z,4.23
2022-08-26T20:41:55.099Z,5.93
2022-08-26T20:45:04.127Z,6.90
2022-08-26T20:48:12.529Z,7.70
2022-08-26T20:51:22.922Z,5.00
2022-08-26T20:54:32.848Z,7.67
2022-08-26T20:57:42.090Z,6.63
2022-08-26T21:00:50.702Z,8.60
2022-08-26T21:03:59.291Z,5.13
2022-08-26T21:07:08.503Z,5.20
2022-08-26T21:10:18.597Z,6.80
2022-08-26T21:13:26.975Z,5.80
2022-08-26T21:16:36.688Z,6.27
2022-08-26T21:19:46.774Z,9.13
2022-08-26T21:22:55.193Z,6.63
2022-08-26T21:26:07.858Z,8.77
2022-08-26T21:29:16.333Z,9.53
2022-08-26T21:32:25.273Z,8.23
2022-08-26T21:35:33.585Z,7.53
2022-08-26T21:38:43.076Z,8.20
2022-08-26T21:41:53.373Z,5.50
2022-08-26T21:45:02.983Z,5.20
2022-08-26T21:48:11.299Z,4.53
2022-08-26T21:51:22.544Z,6.33
2022-08-26T21:54:30.740Z,5.03
2022-08-26T21:57:40.866Z,6.53
2022-08-26T22:00:52.012Z,6.73
2022-08-26T22:04:00.410Z,6.30
2022-08-26T22:07:08.586Z,6.23
2022-08-26T22:10:16.854Z,7.47
2022-08-26T22:13:30.560Z,5.67
2022-08-26T22:16:39.340Z,5.63
2022-08-26T22:19:47.910Z,5.13
2022-08-26T22:22:58.075Z,5.00
2022-08-26T22:26:08.512Z,6.37
2022-08-26T22:29:19.420Z,9.17
2022-08-26T22:32:28.261Z,4.40
2022-08-26T22:35:40.459Z,4.93
2022-08-26T22:38:52.375Z,4.30
2022-08-26T22:42:03.660Z,6.60
2022-08-26T22:45:14.457Z,7.10
2022-08-26T22:48:26.681Z,6.47
2022-08-26T22:51:35.893Z,7.17
2022-08-26T22:54:45.209Z,5.87
2022-08-26T22:57:53.502Z,5.47
2022-08-26T23:01:06.194Z,5.30
2022-08-26T23:04:15.533Z,7.03
2022-08-26T23:07:26.488Z,7.77
2022-08-26T23:10:36.810Z,7.17
2022-08-26T23:13:45.301Z,6.23
2022-08-26T23:16:55.354Z,5.40
2022-08-26T23:20:09.068Z,6.30
2022-08-26T23:23:18.617Z,7.27
2022-08-26T23:26:27.141Z,6.43
2022-08-26T23:29:39.709Z,5.73
2022-08-26T23:32:49.772Z,6.63
2022-08-26T23:35:57.562Z,7.17
2022-08-26T23:39:07.197Z,6.23
2022-08-26T23:42:16.006Z,8.63
2022-08-26T23:45:25.944Z,6.97
2022-08-26T23:48:36.878Z,7.03
2022-08-26T23:52:02.800Z,7.87
2022-08-26T23:55:12.700Z,9.70
2022-08-26T23:58:22.632Z,8.43
